Time;durP1;ratioP1;P1;durP2;ratioP2;P2;SDS_P1;SDS_P2;PMS_P1;PMS_P2;Temp;Humidity;BMP_temperature;BMP_pressure;BME280_temperature;BME280_humidity;BME280_pressure;Samples;Min_cycle;Max_cycle;Signal;HPM_P1;HPM_P2
2023/08/24 00:01:16;;;;;;;9.30;6.40;;;16.70;99.90;;;;;;5075209;28;20418;-79
2023/08/24 00:03:45;;;;;;;12.03;6.67;;;16.70;99.90;;;;;;5106447;28;21001;-80
2023/08/24 00:06:11;;;;;;;10.18;6.30;;;16.70;99.90;;;;;;5098638;28;20427;-80
2023/08/24 00:08:37;;;;;;;8.60;6.00;;;16.40;99.90;;;;;;5079750;28;20416;-80
2023/08/24 00:11:04;;;;;;;8.60;5.80;;;16.50;99.90;;;;;;5092034;28;20432;-78
2023/08/24 00:13:30;;;;;;;8.23;6.07;;;16.60;99.90;;;;;;5092857;28;20511;-78
2023/08/24 00:15:56;;;;;;;11.17;5.97;;;16.70;99.90;;;;;;5080096;28;20417;-77
2023/08/24 00:18:22;;;;;;;8.07;5.70;;;16.50;99.90;;;;;;5069454;28;20504;-77
2023/08/24 00:20:48;;;;;;;9.20;6.43;;;16.30;99.90;;;;;;5101531;28;20469;-77
2023/08/24 00:23:14;;;;;;;9.10;5.82;;;16.50;99.90;;;;;;5094021;28;20412;-78
2023/08/24 00:25:43;;;;;;;10.23;5.82;;;16.50;99.90;;;;;;5084424;28;20426;-78
2023/08/24 00:28:08;;;;;;;8.98;6.30;;;16.20;99.90;;;;;;5066424;28;20908;-78
2023/08/24 00:30:34;;;;;;;8.48;6.20;;;16.50;99.90;;;;;;5091677;28;20480;-78
2023/08/24 00:33:00;;;;;;;9.60;6.57;;;16.30;99.90;;;;;;5076494;28;20425;-78
2023/08/24 00:35:26;;;;;;;10.43;6.70;;;16.50;99.90;;;;;;5098098;28;20428;-78
2023/08/24 00:37:52;;;;;;;9.23;6.87;;;16.50;99.90;;;;;;5085870;28;20558;-77
2023/08/24 00:40:18;;;;;;;9.93;6.20;;;16.50;99.90;;;;;;5090916;28;20433;-77
2023/08/24 00:42:45;;;;;;;8.63;6.03;;;16.20;99.90;;;;;;5079424;28;20434;-78
2023/08/24 00:45:12;;;;;;;9.38;6.07;;;16.30;99.90;;;;;;5125684;27;20394;-78
2023/08/24 00:47:41;;;;;;;9.35;6.20;;;16.50;99.90;;;;;;5130145;27;20413;-78
2023/08/24 00:50:08;;;;;;;7.90;5.75;;;16.50;99.90;;;;;;5121404;27;20920;-78
2023/08/24 00:52:35;;;;;;;10.32;5.40;;;16.30;99.90;;;;;;5075600;28;20437;-78
2023/08/24 00:55:01;;;;;;;7.72;5.07;;;16.40;99.90;;;;;;5134142;27;20991;-78
2023/08/24 00:57:28;;;;;;;9.73;5.83;;;16.40;99.90;;;;;;5111472;28;20417;-79
2023/08/24 00:59:56;;;;;;;7.47;5.47;;;16.20;99.90;;;;;;5067036;28;20777;-78
2023/08/24 01:02:21;;;;;;;7.45;5.45;;;16.20;99.90;;;;;;5115258;27;20905;-78
2023/08/24 01:04:47;;;;;;;11.63;6.07;;;16.30;99.90;;;;;;5079530;28;20467;-78
2023/08/24 01:07:14;;;;;;;9.77;5.70;;;16.30;99.90;;;;;;5116668;27;20470;-78
2023/08/24 01:09:40;;;;;;;10.40;6.13;;;16.40;99.90;;;;;;5107011;28;20421;-77
2023/08/24 01:12:31;;;;;;;9.10;5.78;;;16.10;99.90;;;;;;5095271;28;20419;-78
2023/08/24 01:15:16;;;;;;;7.38;5.15;;;16.30;99.90;;;;;;5101155;28;20416;-79
2023/08/24 01:17:43;;;;;;;8.73;5.22;;;16.20;99.90;;;;;;5109896;27;20426;-79
2023/08/24 01:20:11;;;;;;;7.00;5.57;;;16.30;99.90;;;;;;5089339;28;20421;-79
2023/08/24 01:23:07;;;;;;;7.95;5.35;;;16.20;99.90;;;;;;5081629;28;20471;-79
2023/08/24 01:25:48;;;;;;;8.93;5.60;;;16.40;99.90;;;;;;5075799;28;20406;-79
2023/08/24 01:28:15;;;;;;;6.60;5.30;;;16.40;99.90;;;;;;5106926;28;20417;-79
2023/08/24 01:30:43;;;;;;;6.70;5.38;;;16.20;99.90;;;;;;5095320;28;20473;-80
2023/08/24 01:33:11;;;;;;;7.20;4.93;;;16.10;99.90;;;;;;5094417;28;20473;-79
2023/08/24 01:35:38;;;;;;;9.07;6.45;;;16.20;99.90;;;;;;5088230;28;20415;-78
2023/08/24 01:38:06;;;;;;;8.15;5.72;;;16.10;99.90;;;;;;5080249;28;20417;-77
2023/08/24 01:40:34;;;;;;;10.52;6.60;;;16.10;99.90;;;;;;5083303;28;20830;-78
2023/08/24 01:43:05;;;;;;;8.18;6.10;;;16.10;99.90;;;;;;5101359;28;20420;-78
2023/08/24 01:45:32;;;;;;;10.82;6.55;;;15.80;99.90;;;;;;5109125;28;20458;-78
2023/08/24 01:48:04;;;;;;;9.35;5.95;;;15.90;99.90;;;;;;5095981;28;20416;-78
2023/08/24 01:50:30;;;;;;;9.50;6.68;;;15.90;99.90;;;;;;5081682;28;20412;-78
2023/08/24 01:52:57;;;;;;;13.05;7.60;;;15.90;99.90;;;;;;5088693;28;20444;-79
2023/08/24 01:55:23;;;;;;;10.05;7.30;;;16.10;99.90;;;;;;5101533;28;20968;-80
2023/08/24 01:57:49;;;;;;;10.48;6.97;;;16.00;99.90;;;;;;5114401;28;20415;-77
2023/08/24 02:00:15;;;;;;;11.80;7.27;;;16.00;99.90;;;;;;5101288;28;20777;-78
2023/08/24 02:02:44;;;;;;;13.02;7.32;;;15.80;99.90;;;;;;5093860;28;20413;-78
2023/08/24 02:05:10;;;;;;;14.63;7.70;;;15.70;99.90;;;;;;5089954;28;20414;-78
2023/08/24 02:07:36;;;;;;;12.97;7.27;;;15.70;99.90;;;;;;5096450;28;20416;-77
2023/08/24 02:10:02;;;;;;;11.57;7.13;;;15.70;99.90;;;;;;5098662;28;20415;-78
2023/08/24 02:12:27;;;;;;;11.60;6.88;;;15.70;99.90;;;;;;5105203;28;20418;-78
2023/08/24 02:14:53;;;;;;;11.00;7.07;;;15.90;99.90;;;;;;5093636;28;20444;-79
2023/08/24 02:17:19;;;;;;;9.83;6.63;;;15.90;99.90;;;;;;5095397;28;20431;-78
2023/08/24 02:19:44;;;;;;;10.32;6.68;;;15.60;99.90;;;;;;5087926;28;20432;-79
2023/08/24 02:22:10;;;;;;;10.57;6.60;;;15.70;99.90;;;;;;5089315;28;20407;-79
2023/08/24 02:24:36;;;;;;;8.98;6.57;;;15.80;99.90;;;;;;5074223;28;20422;-79
2023/08/24 02:27:01;;;;;;;9.80;6.50;;;15.80;99.90;;;;;;5122088;27;20837;-79
2023/08/24 02:29:30;;;;;;;9.77;6.30;;;15.80;99.90;;;;;;5089868;28;20937;-78
2023/08/24 02:31:56;;;;;;;12.18;6.63;;;15.80;99.90;;;;;;5080051;28;20445;-79
2023/08/24 02:34:22;;;;;;;11.50;6.72;;;15.90;99.90;;;;;;5082829;28;20450;-78
2023/08/24 02:36:47;;;;;;;11.23;7.00;;;16.00;99.90;;;;;;5097754;28;20408;-79
2023/08/24 02:39:13;;;;;;;10.30;6.97;;;15.70;99.90;;;;;;5112962;28;20740;-79
2023/08/24 02:41:39;;;;;;;10.20;6.90;;;16.00;99.90;;;;;;5083564;28;20429;-78
2023/08/24 02:44:05;;;;;;;11.40;6.80;;;15.80;99.90;;;;;;5103931;28;20499;-79
2023/08/24 02:46:30;;;;;;;10.10;6.47;;;16.00;99.90;;;;;;5112402;28;20394;-78
2023/08/24 02:48:56;;;;;;;10.77;6.40;;;15.90;99.90;;;;;;5116941;27;20424;-78
2023/08/24 02:51:23;;;;;;;11.70;6.70;;;15.90;99.90;;;;;;5098048;28;20412;-78
2023/08/24 02:53:49;;;;;;;11.18;6.60;;;15.90;99.90;;;;;;5110305;28;20484;-78
2023/08/24 02:56:15;;;;;;;10.25;6.60;;;16.00;99.90;;;;;;5104674;28;20426;-79
2023/08/24 02:58:41;;;;;;;10.75;7.38;;;15.90;99.90;;;;;;5092530;28;20982;-78
2023/08/24 03:01:07;;;;;;;11.77;7.60;;;16.00;99.90;;;;;;5088382;28;20433;-77
2023/08/24 03:03:36;;;;;;;12.40;7.47;;;15.70;99.90;;;;;;5101746;28;20447;-77
2023/08/24 03:06:07;;;;;;;11.63;7.88;;;15.70;99.90;;;;;;5106902;28;20418;-78
2023/08/24 03:08:34;;;;;;;10.48;7.57;;;15.50;99.90;;;;;;5077035;28;20394;-78
2023/08/24 03:11:01;;;;;;;11.27;8.43;;;15.80;99.90;;;;;;5123862;27;20414;-78
2023/08/24 03:13:27;;;;;;;13.25;7.97;;;15.80;99.90;;;;;;5126325;27;20410;-78
2023/08/24 03:15:53;;;;;;;12.80;8.80;;;15.50;99.90;;;;;;5119797;27;20436;-79
2023/08/24 03:18:20;;;;;;;14.27;8.90;;;15.50;99.90;;;;;;5083848;28;20429;-77
2023/08/24 03:20:47;;;;;;;15.18;9.60;;;15.20;99.90;;;;;;5115475;27;20418;-78
2023/08/24 03:23:13;;;;;;;14.80;9.95;;;15.20;99.90;;;;;;5092719;28;20422;-77
2023/08/24 03:25:40;;;;;;;14.35;9.80;;;15.20;99.90;;;;;;5139703;27;20771;-78
2023/08/24 03:28:07;;;;;;;15.02;9.60;;;15.40;99.90;;;;;;5092648;28;20417;-77
2023/08/24 03:30:38;;;;;;;16.30;10.23;;;15.30;99.90;;;;;;5072839;28;20435;-77
2023/08/24 03:33:05;;;;;;;15.55;10.13;;;15.30;99.90;;;;;;5082546;28;20910;-77
2023/08/24 03:35:32;;;;;;;16.27;9.40;;;15.10;99.90;;;;;;5109752;28;20543;-79
2023/08/24 03:37:57;;;;;;;15.20;10.03;;;15.40;99.90;;;;;;5092855;28;20502;-79
2023/08/24 03:40:23;;;;;;;14.53;9.13;;;15.30;99.90;;;;;;5134680;27;20911;-77
2023/08/24 03:42:49;;;;;;;19.15;10.45;;;15.60;99.90;;;;;;5103843;28;20416;-78
2023/08/24 03:45:15;;;;;;;14.23;9.73;;;15.50;99.90;;;;;;5107102;27;20415;-79
2023/08/24 03:47:41;;;;;;;17.83;10.10;;;15.40;99.90;;;;;;5085992;28;20766;-78
2023/08/24 03:50:07;;;;;;;15.68;8.85;;;15.30;99.90;;;;;;5092137;28;20774;-78
2023/08/24 03:52:33;;;;;;;16.33;10.35;;;15.40;99.90;;;;;;5105499;28;20424;-78
2023/08/24 03:54:58;;;;;;;14.57;9.70;;;16.50;99.90;;;;;;5068999;28;20410;-79
2023/08/24 03:57:24;;;;;;;15.50;9.30;;;15.10;99.90;;;;;;5092858;28;20497;-77
2023/08/24 03:59:50;;;;;;;17.15;9.98;;;15.70;99.90;;;;;;5111380;27;20429;-79
2023/08/24 04:02:16;;;;;;;18.55;11.18;;;15.20;99.90;;;;;;5109674;27;20413;-79
2023/08/24 04:04:41;;;;;;;16.02;9.82;;;15.40;99.90;;;;;;5065110;28;20443;-79
2023/08/24 04:07:07;;;;;;;17.17;10.40;;;15.40;99.90;;;;;;5093488;28;20409;-79
2023/08/24 04:09:33;;;;;;;17.37;9.83;;;15.20;99.90;;;;;;5109649;27;20436;-78
2023/08/24 04:11:58;;;;;;;16.13;9.00;;;15.50;99.90;;;;;;5077799;28;20494;-79
2023/08/24 04:14:24;;;;;;;18.95;10.10;;;15.60;99.90;;;;;;5070760;28;20414;-79
2023/08/24 04:16:50;;;;;;;14.82;9.73;;;15.40;99.90;;;;;;5089688;28;20409;-79
2023/08/24 04:19:15;;;;;;;14.70;9.97;;;15.40;99.90;;;;;;5082291;28;20500;-80
2023/08/24 04:21:41;;;;;;;14.97;9.87;;;;;;;;;;5126936;27;20406;-80
2023/08/24 04:24:07;;;;;;;16.85;10.60;;;15.30;99.90;;;;;;5092488;28;20957;-78
2023/08/24 04:26:33;;;;;;;17.13;10.83;;;15.60;99.90;;;;;;5070604;28;20502;-80
2023/08/24 04:28:58;;;;;;;14.38;10.15;;;15.50;99.90;;;;;;5095273;28;20448;-79
2023/08/24 04:31:24;;;;;;;16.35;11.18;;;15.20;99.90;;;;;;5125567;27;20862;-79
2023/08/24 04:33:50;;;;;;;14.10;9.75;;;15.20;99.90;;;;;;5112688;28;20419;-79
2023/08/24 04:36:16;;;;;;;16.67;9.70;;;15.30;99.90;;;;;;5068288;28;20424;-79
2023/08/24 04:38:41;;;;;;;13.40;8.37;;;15.30;99.90;;;;;;5093387;28;20398;-80
2023/08/24 04:41:09;;;;;;;13.82;8.30;;;15.20;99.90;;;;;;5092874;28;20429;-79
2023/08/24 04:43:36;;;;;;;11.32;7.65;;;;;;;;;;5137009;27;20416;-79
2023/08/24 04:46:02;;;;;;;11.98;8.07;;;15.30;99.90;;;;;;5105338;28;20739;-80
2023/08/24 04:48:32;;;;;;;13.55;8.15;;;15.20;99.90;;;;;;5082470;28;20514;-79
2023/08/24 04:51:02;;;;;;;13.70;8.77;;;15.30;99.90;;;;;;5080761;28;20497;-79
2023/08/24 04:53:27;;;;;;;14.90;9.70;;;15.20;99.90;;;;;;5109951;28;20936;-79
2023/08/24 04:55:53;;;;;;;17.67;9.98;;;15.10;99.90;;;;;;5104161;28;20445;-80
2023/08/24 04:58:19;;;;;;;14.00;9.23;;;15.10;99.90;;;;;;5098171;28;20471;-79
2023/08/24 05:00:45;;;;;;;11.77;8.25;;;15.20;99.90;;;;;;5079283;28;20450;-79
2023/08/24 05:03:11;;;;;;;14.70;9.02;;;15.10;99.90;;;;;;5093315;28;20836;-79
2023/08/24 05:05:37;;;;;;;14.93;7.95;;;15.10;99.90;;;;;;5071012;28;20424;-78
2023/08/24 05:08:11;;;;;;;12.00;8.30;;;15.10;99.90;;;;;;5108523;27;20425;-79
2023/08/24 05:10:37;;;;;;;14.32;9.02;;;15.10;99.90;;;;;;5112171;27;20444;-78
2023/08/24 05:13:03;;;;;;;15.77;9.55;;;15.30;99.90;;;;;;5074708;28;20492;-77
2023/08/24 05:15:29;;;;;;;15.80;9.18;;;15.30;99.90;;;;;;5098732;28;20511;-78
2023/08/24 05:17:56;;;;;;;15.57;9.50;;;15.10;99.90;;;;;;5093766;28;20508;-79
2023/08/24 05:20:26;;;;;;;15.35;9.85;;;15.20;99.90;;;;;;5108219;27;20416;-79
2023/08/24 05:22:54;;;;;;;15.77;9.75;;;15.30;99.90;;;;;;5076301;28;20482;-77
2023/08/24 05:25:21;;;;;;;12.38;9.20;;;15.10;99.90;;;;;;5077880;28;20421;-79
2023/08/24 05:27:47;;;;;;;20.08;9.35;;;15.30;99.90;;;;;;5081591;28;20505;-79
2023/08/24 05:30:13;;;;;;;17.77;9.77;;;15.10;99.90;;;;;;5089846;28;20508;-80
2023/08/24 05:32:39;;;;;;;15.80;9.57;;;15.40;99.90;;;;;;5093600;28;20410;-79
2023/08/24 05:35:06;;;;;;;19.57;10.23;;;15.00;99.90;;;;;;5092714;28;20423;-78
2023/08/24 05:37:32;;;;;;;15.43;10.20;;;15.20;99.90;;;;;;5100232;28;20917;-79
2023/08/24 05:39:58;;;;;;;18.35;10.07;;;15.40;99.90;;;;;;5110870;28;20534;-81
2023/08/24 05:42:24;;;;;;;16.75;10.10;;;15.40;99.90;;;;;;5092599;28;20976;-80
2023/08/24 05:44:50;;;;;;;14.52;9.68;;;15.40;99.90;;;;;;5081111;28;20506;-80
2023/08/24 05:47:15;;;;;;;15.18;9.73;;;15.20;99.90;;;;;;5098535;28;20435;-81
2023/08/24 05:49:41;;;;;;;16.58;10.63;;;15.30;99.90;;;;;;5070323;28;20440;-79
2023/08/24 05:52:07;;;;;;;13.05;9.60;;;16.20;99.90;;;;;;5097966;28;21209;-80
2023/08/24 05:54:33;;;;;;;14.17;10.40;;;15.60;99.90;;;;;;5077549;28;20773;-80
2023/08/24 05:57:01;;;;;;;16.33;9.90;;;15.50;99.90;;;;;;5084199;28;20542;-80
2023/08/24 05:59:27;;;;;;;14.48;9.88;;;15.70;99.90;;;;;;5098549;28;20425;-80
2023/08/24 06:01:53;;;;;;;15.05;9.35;;;15.90;99.90;;;;;;5126105;27;20929;-78
2023/08/24 06:04:18;;;;;;;16.00;9.15;;;16.10;99.90;;;;;;5060778;28;20406;-80
2023/08/24 06:06:45;;;;;;;14.63;8.73;;;16.20;99.90;;;;;;5091979;28;20404;-79
2023/08/24 06:09:10;;;;;;;11.52;8.30;;;16.10;99.90;;;;;;5113332;27;20412;-79
2023/08/24 06:11:36;;;;;;;12.80;8.25;;;16.40;99.90;;;;;;5120194;28;20449;-79
2023/08/24 06:14:02;;;;;;;14.57;8.43;;;16.30;99.90;;;;;;5103102;28;20491;-78
2023/08/24 06:16:29;;;;;;;12.25;7.78;;;16.60;99.90;;;;;;5081555;28;20416;-80
2023/08/24 06:18:55;;;;;;;12.32;7.63;;;16.40;99.90;;;;;;5060709;28;20514;-78
2023/08/24 06:21:20;;;;;;;18.90;8.50;;;16.60;99.90;;;;;;5137351;27;20509;-78
2023/08/24 06:23:47;;;;;;;9.67;7.00;;;16.80;99.90;;;;;;5099289;28;20768;-79
2023/08/24 06:26:15;;;;;;;11.27;6.63;;;16.70;99.90;;;;;;5071333;28;20534;-81
2023/08/24 06:28:41;;;;;;;10.35;6.75;;;17.20;99.90;;;;;;5079747;28;20415;-78
2023/08/24 06:31:10;;;;;;;10.88;6.88;;;17.20;99.90;;;;;;5085712;28;20827;-78
2023/08/24 06:33:37;;;;;;;12.27;6.07;;;17.40;99.90;;;;;;5099021;28;20456;-78
2023/08/24 06:36:08;;;;;;;11.07;6.60;;;17.40;99.90;;;;;;5085377;28;20426;-78
2023/08/24 06:38:34;;;;;;;10.07;5.90;;;17.30;99.90;;;;;;5103256;28;22615;-78
2023/08/24 06:41:00;;;;;;;8.10;5.93;;;17.70;99.90;;;;;;5099385;28;20425;-79
2023/08/24 06:43:26;;;;;;;12.07;5.75;;;17.80;99.90;;;;;;5088753;28;20416;-80
2023/08/24 06:45:52;;;;;;;9.02;5.50;;;18.20;99.90;;;;;;5074539;28;20428;-79
2023/08/24 06:48:18;;;;;;;10.70;5.63;;;17.90;99.90;;;;;;5091835;28;20420;-78
2023/08/24 06:50:44;;;;;;;9.35;5.60;;;18.30;99.90;;;;;;5078145;28;20452;-78
2023/08/24 06:53:10;;;;;;;9.73;6.30;;;18.10;99.90;;;;;;5096316;28;20815;-78
2023/08/24 06:55:36;;;;;;;9.35;5.97;;;18.10;99.90;;;;;;5094971;28;20426;-78
2023/08/24 06:58:04;;;;;;;9.00;5.60;;;17.90;99.90;;;;;;5098431;28;20471;-79
2023/08/24 07:00:31;;;;;;;11.02;5.50;;;18.40;99.90;;;;;;5098287;28;20427;-77
2023/08/24 07:02:57;;;;;;;8.63;5.10;;;18.60;99.90;;;;;;5087259;28;20511;-78
2023/08/24 07:05:23;;;;;;;9.68;5.30;;;18.30;99.90;;;;;;5097455;28;20461;-77
2023/08/24 07:07:53;;;;;;;9.18;5.50;;;18.40;99.90;;;;;;5080351;28;20501;-77
2023/08/24 07:10:19;;;;;;;8.70;5.18;;;18.60;99.90;;;;;;5108264;27;20416;-79
2023/08/24 07:12:46;;;;;;;10.23;5.28;;;19.00;99.90;;;;;;5083378;28;20926;-78
2023/08/24 07:15:12;;;;;;;9.05;5.05;;;19.40;99.90;;;;;;5095778;28;20451;-78
2023/08/24 07:17:39;;;;;;;9.40;5.40;;;18.90;99.90;;;;;;5083204;28;20488;-80
2023/08/24 07:20:06;;;;;;;8.05;4.75;;;18.70;99.90;;;;;;5098325;28;20425;-79
2023/08/24 07:22:32;;;;;;;10.43;5.00;;;18.80;99.90;;;;;;5103383;28;20479;-79
2023/08/24 07:24:58;;;;;;;9.57;5.68;;;19.20;99.90;;;;;;5085203;28;20955;-79
2023/08/24 07:27:23;;;;;;;10.88;5.55;;;19.40;99.90;;;;;;5112169;28;20482;-79
2023/08/24 07:29:49;;;;;;;8.68;5.05;;;19.40;99.90;;;;;;5111962;28;20887;-80
2023/08/24 07:32:15;;;;;;;9.10;5.50;;;19.40;99.90;;;;;;5069197;28;20498;-78
2023/08/24 07:34:41;;;;;;;9.85;5.43;;;19.70;99.90;;;;;;5094630;27;20962;-79
2023/08/24 07:37:07;;;;;;;15.30;6.13;;;19.90;99.90;;;;;;5092630;28;20478;-79
2023/08/24 07:39:33;;;;;;;9.70;5.67;;;19.90;99.90;;;;;;5093031;28;20845;-79
2023/08/24 07:41:59;;;;;;;11.00;6.63;;;20.30;99.90;;;;;;5088964;28;20414;-79
2023/08/24 07:44:25;;;;;;;8.80;6.10;;;19.90;99.90;;;;;;5087686;28;20468;-78
2023/08/24 07:46:50;;;;;;;9.60;5.80;;;20.20;99.90;;;;;;5110899;27;21615;-78
2023/08/24 07:49:16;;;;;;;12.70;6.70;;;20.30;99.90;;;;;;5110870;27;20421;-79
2023/08/24 07:51:47;;;;;;;8.35;5.70;;;20.10;99.90;;;;;;5073474;28;21124;-79
2023/08/24 07:54:13;;;;;;;9.68;6.15;;;20.60;99.90;;;;;;5091723;28;20984;-79
2023/08/24 07:56:39;;;;;;;10.52;5.78;;;20.30;99.90;;;;;;5087859;28;20518;-77
2023/08/24 07:59:04;;;;;;;10.60;6.00;;;20.70;99.90;;;;;;5090244;28;20878;-76
2023/08/24 08:01:30;;;;;;;13.20;5.88;;;20.80;99.90;;;;;;5089150;28;20409;-79
2023/08/24 08:03:56;;;;;;;11.38;5.95;;;20.90;99.90;;;;;;5122199;27;20427;-79
2023/08/24 08:06:24;;;;;;;13.63;5.87;;;21.10;99.90;;;;;;5082911;28;20515;-77
2023/08/24 08:08:51;;;;;;;10.20;4.97;;;21.00;99.90;;;;;;5084233;28;20827;-76
2023/08/24 08:11:17;;;;;;;8.33;5.20;;;20.90;99.90;;;;;;5099550;27;20417;-77
2023/08/24 08:13:43;;;;;;;8.75;4.53;;;21.20;99.90;;;;;;5103349;28;20421;-79
2023/08/24 08:16:09;;;;;;;8.02;4.22;;;21.40;99.90;;;;;;5102191;28;20432;-77
2023/08/24 08:18:36;;;;;;;8.93;4.70;;;21.80;99.90;;;;;;5123062;27;20428;-77
2023/08/24 08:21:10;;;;;;;9.65;4.05;;;21.80;99.90;;;;;;5127901;27;20418;-77
2023/08/24 08:23:36;;;;;;;10.27;4.10;;;22.00;99.90;;;;;;5083864;28;20431;-77
2023/08/24 08:26:02;;;;;;;7.05;3.75;;;21.50;99.90;;;;;;5085298;28;20421;-78
2023/08/24 08:28:28;;;;;;;7.75;4.00;;;22.30;99.90;;;;;;5078050;28;20416;-78
2023/08/24 08:30:54;;;;;;;8.38;3.88;;;22.30;99.90;;;;;;5098830;27;20436;-79
2023/08/24 08:33:21;;;;;;;10.20;4.20;;;22.30;99.90;;;;;;5101435;28;20522;-79
2023/08/24 08:35:47;;;;;;;8.93;4.18;;;22.30;99.90;;;;;;5092539;28;20413;-78
2023/08/24 08:38:13;;;;;;;10.68;4.70;;;22.50;99.90;;;;;;5078431;28;20897;-79
2023/08/24 08:40:41;;;;;;;7.40;4.10;;;21.90;99.90;;;;;;5083662;28;20428;-78
2023/08/24 08:43:06;;;;;;;10.30;4.55;;;21.90;99.90;;;;;;5085052;28;20416;-78
2023/08/24 08:45:33;;;;;;;9.48;4.68;;;22.10;99.90;;;;;;5093007;27;21414;-79
2023/08/24 08:48:00;;;;;;;11.13;4.88;;;22.40;99.90;;;;;;5092285;28;20414;-78
2023/08/24 08:50:26;;;;;;;10.18;4.75;;;22.20;99.90;;;;;;5110463;27;20422;-77
2023/08/24 08:52:52;;;;;;;9.75;4.97;;;22.40;99.90;;;;;;5106112;28;20427;-77
2023/08/24 08:55:18;;;;;;;8.88;4.78;;;22.50;99.90;;;;;;5099516;28;20413;-78
2023/08/24 08:57:48;;;;;;;8.50;4.57;;;22.70;99.90;;;;;;5098054;28;20973;-78
2023/08/24 09:00:18;;;;;;;13.00;4.72;;;22.60;99.90;;;;;;5097536;27;20907;-78
2023/08/24 09:02:45;;;;;;;7.72;5.07;;;23.00;99.90;;;;;;5110072;28;20403;-76
2023/08/24 09:05:14;;;;;;;10.70;5.50;;;23.00;99.90;;;;;;5116551;27;20412;-76
2023/08/24 09:07:41;;;;;;;11.63;5.82;;;22.90;99.90;;;;;;5081802;28;20420;-76
2023/08/24 09:10:07;;;;;;;9.90;5.05;;;22.60;99.90;;;;;;5068267;28;20479;-77
2023/08/24 09:12:34;;;;;;;11.32;5.25;;;22.40;99.90;;;;;;5098879;28;20428;-77
2023/08/24 09:15:02;;;;;;;11.07;5.40;;;22.30;99.90;;;;;;5098618;28;20426;-77
2023/08/24 09:17:28;;;;;;;10.32;4.90;;;22.70;99.90;;;;;;5113840;27;20459;-77
2023/08/24 09:19:58;;;;;;;9.03;5.43;;;22.80;99.90;;;;;;5099272;28;20462;-77
2023/08/24 09:22:26;;;;;;;9.23;5.20;;;22.70;99.90;;;;;;5093863;28;20455;-76
2023/08/24 09:24:52;;;;;;;12.45;5.25;;;22.80;99.90;;;;;;5129275;27;20861;-77
2023/08/24 09:27:19;;;;;;;8.30;4.70;;;22.80;99.90;;;;;;5090624;28;20508;-77
2023/08/24 09:29:52;;;;;;;9.65;5.90;;;22.10;99.90;;;;;;5103990;28;20436;-76
2023/08/24 09:32:28;;;;;;;9.55;5.28;;;22.60;99.90;;;;;;5083927;28;20924;-77
2023/08/24 09:34:55;;;;;;;9.17;5.33;;;22.50;99.90;;;;;;5098796;28;20408;-77
2023/08/24 09:37:21;;;;;;;10.32;5.53;;;22.60;99.90;;;;;;5088774;28;20429;-76
2023/08/24 09:39:47;;;;;;;10.25;5.55;;;22.30;99.90;;;;;;5094982;28;20410;-77
2023/08/24 09:42:13;;;;;;;10.73;5.72;;;22.60;99.90;;;;;;5097064;28;20454;-77
2023/08/24 09:44:44;;;;;;;10.27;6.18;;;22.60;99.90;;;;;;5102806;28;20446;-77
2023/08/24 09:47:13;;;;;;;11.18;6.22;;;22.40;99.90;;;;;;5137931;27;20406;-77
2023/08/24 09:49:39;;;;;;;10.35;6.05;;;20.90;99.90;;;;;;5090100;28;20418;-77
2023/08/24 09:52:09;;;;;;;10.30;5.72;;;22.30;99.90;;;;;;5094545;28;20840;-77
2023/08/24 09:54:38;;;;;;;11.50;6.27;;;22.40;99.90;;;;;;5085762;28;20406;-76
2023/08/24 09:57:07;;;;;;;10.63;5.78;;;22.50;99.90;;;;;;5074059;28;20496;-77
2023/08/24 09:59:34;;;;;;;10.40;5.70;;;22.40;99.90;;;;;;5118356;27;20422;-78
2023/08/24 10:02:01;;;;;;;11.75;5.80;;;22.40;99.90;;;;;;5085493;28;20448;-78
2023/08/24 10:04:37;;;;;;;11.57;5.65;;;22.30;99.90;;;;;;5107904;28;20499;-78
2023/08/24 10:07:07;;;;;;;11.37;5.97;;;22.50;99.90;;;;;;5099779;28;20469;-78
2023/08/24 10:09:44;;;;;;;10.23;5.88;;;22.60;99.90;;;;;;5139934;27;20760;-78
2023/08/24 10:12:12;;;;;;;13.05;6.28;;;22.20;99.90;;;;;;5083167;28;20410;-77
2023/08/24 10:15:12;;;;;;;12.40;6.65;;;22.30;99.90;;;;;;5092079;27;20399;-77
2023/08/24 10:17:39;;;;;;;11.38;6.40;;;22.50;99.90;;;;;;5049004;28;20409;-77
2023/08/24 10:20:08;;;;;;;10.75;6.22;;;22.80;99.90;;;;;;5086586;28;20905;-77
2023/08/24 10:22:35;;;;;;;12.07;7.22;;;22.60;99.90;;;;;;5114101;27;20424;-77
2023/08/24 10:25:02;;;;;;;13.23;7.50;;;22.10;99.90;;;;;;5109724;27;20915;-77
2023/08/24 10:27:29;;;;;;;12.10;7.30;;;22.10;99.90;;;;;;5080170;27;20511;-77
2023/08/24 10:29:55;;;;;;;13.77;8.00;;;21.90;99.90;;;;;;5111425;28;20444;-77
2023/08/24 10:32:23;;;;;;;14.50;8.32;;;22.40;99.90;;;;;;5094066;28;20402;-76
2023/08/24 10:34:50;;;;;;;12.80;8.13;;;22.20;99.90;;;;;;5142703;27;20412;-78
2023/08/24 10:37:16;;;;;;;13.73;8.38;;;22.10;99.90;;;;;;5126759;27;20500;-78
2023/08/24 10:39:46;;;;;;;10.82;7.55;;;22.10;99.90;;;;;;5089916;27;20509;-78
2023/08/24 10:42:13;;;;;;;12.18;8.10;;;22.00;99.90;;;;;;5097255;28;20976;-79
2023/08/24 10:44:43;;;;;;;10.80;7.85;;;22.20;99.90;;;;;;5107442;27;20402;-78
2023/08/24 10:47:18;;;;;;;11.43;8.25;;;21.80;99.90;;;;;;5089899;28;20418;-78
2023/08/24 10:49:54;;;;;;;11.57;7.70;;;21.90;99.90;;;;;;5092501;27;20417;-80
2023/08/24 10:52:24;;;;;;;14.27;7.80;;;21.90;99.90;;;;;;5082654;28;20498;-83
2023/08/24 10:54:51;;;;;;;11.25;7.63;;;21.90;99.90;;;;;;5090805;27;20412;-82
2023/08/24 10:57:22;;;;;;;13.80;8.07;;;22.20;99.90;;;;;;5101516;27;20414;-80
2023/08/24 11:00:21;;;;;;;10.32;7.93;;;22.20;99.90;;;;;;5094130;27;20457;-81
2023/08/24 11:02:49;;;;;;;11.32;8.15;;;22.20;99.90;;;;;;5099741;27;20995;-80
2023/08/24 11:05:18;;;;;;;17.73;8.20;;;22.00;99.90;;;;;;5072305;28;20492;-80
2023/08/24 11:07:54;;;;;;;10.35;7.45;;;22.30;99.90;;;;;;5102320;28;20405;-81
2023/08/24 11:10:21;;;;;;;15.43;8.55;;;22.40;99.90;;;;;;5077459;28;20422;-81
2023/08/24 11:13:08;;;;;;;14.23;8.00;;;22.40;99.90;;;;;;5072948;28;20479;-80
2023/08/24 11:15:44;;;;;;;10.10;7.63;;;22.30;99.90;;;;;;5133383;27;20609;-80
2023/08/24 11:18:18;;;;;;;10.67;8.00;;;22.50;99.90;;;;;;5117349;27;20460;-79
2023/08/24 11:20:53;;;;;;;10.45;8.32;;;22.40;99.90;;;;;;5091627;28;20424;-80
2023/08/24 11:23:20;;;;;;;10.82;8.32;;;22.50;99.90;;;;;;5095409;27;20408;-81
2023/08/24 11:25:48;;;;;;;14.32;8.57;;;22.50;99.90;;;;;;5078715;28;20497;-80
2023/08/24 11:28:19;;;;;;;13.45;8.65;;;22.40;99.90;;;;;;5139169;27;20416;-81
2023/08/24 11:30:45;;;;;;;12.98;8.80;;;22.20;99.90;;;;;;5100645;28;20493;-80
2023/08/24 11:33:12;;;;;;;12.65;9.23;;;22.20;99.90;;;;;;5125503;27;20750;-80
2023/08/24 11:35:43;;;;;;;12.43;9.02;;;22.50;99.90;;;;;;5126822;27;20425;-80
2023/08/24 11:38:10;;;;;;;14.93;9.20;;;22.30;99.90;;;;;;5105691;28;20479;-79
2023/08/24 11:40:36;;;;;;;14.85;9.73;;;22.50;99.90;;;;;;5074927;28;20429;-80
2023/08/24 11:43:04;;;;;;;13.70;9.77;;;22.50;99.90;;;;;;5129803;27;20919;-80
2023/08/24 11:45:32;;;;;;;14.38;10.45;;;23.10;99.90;;;;;;5099249;28;20482;-80
2023/08/24 11:48:00;;;;;;;13.13;9.30;;;22.70;99.90;;;;;;5101409;28;20422;-79
2023/08/24 11:50:26;;;;;;;16.05;10.65;;;22.80;99.90;;;;;;5087967;28;20540;-80
2023/08/24 11:52:53;;;;;;;14.23;10.65;;;22.80;99.90;;;;;;5111806;28;20507;-81
2023/08/24 11:55:21;;;;;;;12.18;10.77;;;22.80;99.90;;;;;;5092647;28;20428;-80
2023/08/24 11:57:47;;;;;;;14.38;11.35;;;23.10;99.90;;;;;;5101951;28;20495;-80
2023/08/24 12:00:14;;;;;;;15.27;11.20;;;23.00;99.90;;;;;;5126336;27;20851;-78
2023/08/24 12:02:43;;;;;;;15.43;10.90;;;22.70;99.90;;;;;;5111923;28;20499;-81
2023/08/24 12:05:23;;;;;;;14.73;10.83;;;22.70;99.90;;;;;;5080853;28;20414;-79
2023/08/24 12:07:51;;;;;;;17.60;10.85;;;22.60;99.90;;;;;;5069856;28;20987;-78
2023/08/24 12:10:17;;;;;;;15.70;10.52;;;23.10;99.90;;;;;;5090574;28;20488;-77
2023/08/24 12:12:43;;;;;;;15.85;10.88;;;22.70;99.90;;;;;;5091063;28;20423;-77
2023/08/24 12:15:16;;;;;;;17.70;10.80;;;23.20;99.90;;;;;;5097653;28;20408;-77
2023/08/24 12:17:43;;;;;;;14.57;10.70;;;23.00;99.90;;;;;;5090216;28;20516;-79
2023/08/24 12:20:22;;;;;;;15.23;10.23;;;22.90;99.90;;;;;;5087783;28;20904;-78
2023/08/24 12:22:55;;;;;;;14.10;10.20;;;22.90;99.90;;;;;;5131148;27;20404;-78
2023/08/24 12:25:25;;;;;;;14.35;10.63;;;23.00;99.90;;;;;;5107166;28;20427;-78
2023/08/24 12:28:15;;;;;;;14.30;10.15;;;23.20;99.90;;;;;;5072695;28;20770;-79
2023/08/24 12:30:52;;;;;;;13.57;10.10;;;23.60;99.90;;;;;;5139056;27;20776;-79
2023/08/24 12:33:36;;;;;;;11.68;9.90;;;23.50;99.90;;;;;;5100504;28;20435;-80
2023/08/24 12:36:02;;;;;;;14.18;10.35;;;23.70;99.90;;;;;;5058309;28;20563;-82
2023/08/24 12:38:27;;;;;;;14.52;10.13;;;23.80;99.90;;;;;;5086576;28;20506;-79
2023/08/24 12:40:54;;;;;;;13.65;10.27;;;23.60;99.90;;;;;;5079407;28;20428;-79